< < Back
Terminal Aerodrome Forecast


Current Version              Previous Versions:   1  2  3  4  5  6  7  8  9  

Terminal Aerodrome Forecast

577
FTUS42 KTAE 010521
TAFDHN
TAF
KDHN 010521Z 0106/0206 08005KT P6SM SCT250=

Latest METAR

855
SAUS70 KWBC 012200 RRT
MTRDHN
METAR KDHN 012153Z 08005KT 10SM CLR 32/20 A3007 RMK AO2 SLP175
T03220200


USA.gov is the U.S. government's official web portal to all federal, state and local government web resources and services.